Portada
METAR-TAF:

METAR-TAF

Aeropuertos :

Aeropuerto de Zagreb-Franjo Tuđman

Zagreb, Croacia

latitud: 45-44N, longitud: 016-04E, altitud: 106 m

Observación

El informe se hizo hace 6 minutos, a las 16:30 UTC
Viento calma
Temperatura 0°C
Humedad 74%
Presión 1015 hPa
Visibilidad 10 km o más
sin nubes por debajo de 1500 m y sin presencia de cumulonimbus.

METAR: LDZA 111630Z 00000KT CAVOK 00/M04 Q1015 NOSIG

Hora: 17:36 (16:36 UTC)

Pronóstico

El informe se hizo hace 5 horas y 11 minutos, a las 11:25 UTC
Pronóstico válido del 11 a las 12 UTC al 12 a las 12 UTC
Viento 5 kt del noreste
Visibilidad 10 km o más
sin nubes por debajo de 1500 m y sin presencia de cumulonimbus.
Evolucionando progresivamente
del 12 a las 00 UTC al 12 a las 02 UTC
Cielo nuboso a una altura de 1400 ft

TAF: LDZA 111125Z 1112/1212 04005KT CAVOK TX05/1113Z TNM03/1123Z BECMG 1200/1202 BKN014

Observaciones y pronósticos meteorológicos de más de 4000 aeropuertos (mensajes METAR y TAF).

Los puntos amarillos y rojos representan las estaciones disponibles.

Ponga el ratón en el punto deseado para ver el nombre de la estación.

Haga clic para ver las observaciones y los pronósticos meteorológicos.

Para cambiar el mapa : haga clic en los botones verdes con una cruz de color negro para hacer un zoom, en el botón verde con un guión para alejar o en las flechas verdes para mapas adyacentes.


METAR-TAF: